createdAt,value
2018-01-21T00:01:37.757Z,3.20
2018-01-21T00:04:05.715Z,2.37
2018-01-21T00:06:33.714Z,2.25
2018-01-21T00:09:01.690Z,2.75
2018-01-21T00:11:29.720Z,2.50
2018-01-21T00:13:57.730Z,2.40
2018-01-21T00:16:25.666Z,2.83
2018-01-21T00:18:53.722Z,2.10
2018-01-21T00:21:21.698Z,2.15
2018-01-21T00:23:49.675Z,2.70
2018-01-21T00:26:17.679Z,2.80
2018-01-21T00:28:45.673Z,2.35
2018-01-21T00:31:13.654Z,3.55
2018-01-21T00:33:41.632Z,3.30
2018-01-21T00:36:09.610Z,2.75
2018-01-21T00:38:37.616Z,2.83
2018-01-21T00:41:05.604Z,2.58
2018-01-21T00:43:33.643Z,3.70
2018-01-21T00:46:01.653Z,3.45
2018-01-21T00:48:29.611Z,3.60
2018-01-21T00:50:57.586Z,3.28
2018-01-21T00:53:25.595Z,2.90
2018-01-21T00:55:53.571Z,3.37
2018-01-21T00:58:22.544Z,3.83
2018-01-21T01:00:50.546Z,3.65
2018-01-21T01:03:18.575Z,3.55
2018-01-21T01:05:46.535Z,4.07
2018-01-21T01:08:14.516Z,3.95
2018-01-21T01:10:42.520Z,3.95
2018-01-21T01:13:10.482Z,3.30
2018-01-21T01:15:38.528Z,3.95
2018-01-21T01:18:06.554Z,4.78
2018-01-21T01:20:34.569Z,3.37
2018-01-21T01:23:02.538Z,4.55
2018-01-21T01:25:30.533Z,4.35
2018-01-21T01:27:58.500Z,4.20
2018-01-21T01:30:26.521Z,3.30
2018-01-21T01:32:54.504Z,3.35
2018-01-21T01:35:22.478Z,3.53
2018-01-21T01:37:50.900Z,3.78
2018-01-21T01:40:18.911Z,4.05
2018-01-21T01:42:46.932Z,4.18
2018-01-21T01:45:14.912Z,3.37
2018-01-21T01:47:42.910Z,4.00
2018-01-21T01:50:10.884Z,4.05
2018-01-21T01:52:38.877Z,4.55
2018-01-21T01:55:06.882Z,4.40
2018-01-21T01:57:34.910Z,4.55
2018-01-21T02:00:02.961Z,4.80
2018-01-21T02:02:30.979Z,4.12
2018-01-21T02:04:58.966Z,4.32
2018-01-21T02:07:26.938Z,6.10
2018-01-21T02:09:54.960Z,5.05
2018-01-21T02:12:22.956Z,5.22
2018-01-21T02:14:50.927Z,3.80
2018-01-21T02:17:18.919Z,5.68
2018-01-21T02:19:46.886Z,5.55
2018-01-21T02:22:14.874Z,4.87
2018-01-21T02:24:42.874Z,6.07
2018-01-21T02:27:10.871Z,5.40
2018-01-21T02:29:38.904Z,6.45
2018-01-21T02:32:06.869Z,6.32
2018-01-21T02:34:34.818Z,5.68
2018-01-21T02:37:02.828Z,4.90
2018-01-21T02:39:31.924Z,6.70
2018-01-21T02:41:59.866Z,6.07
2018-01-21T02:44:27.868Z,6.07
2018-01-21T02:46:55.901Z,6.62
2018-01-21T02:49:23.894Z,6.47
2018-01-21T02:51:51.904Z,6.85
2018-01-21T02:54:19.936Z,5.90
2018-01-21T02:56:47.936Z,5.90
2018-01-21T02:59:15.928Z,7.40
2018-01-21T03:01:43.939Z,7.50
2018-01-21T03:04:11.952Z,8.73
2018-01-21T03:06:39.980Z,6.60
2018-01-21T03:09:07.926Z,7.95
2018-01-21T03:11:35.936Z,7.78
2018-01-21T03:14:03.981Z,7.00
2018-01-21T03:16:31.986Z,7.65
2018-01-21T03:18:59.976Z,7.22
2018-01-21T03:21:27.944Z,6.78
2018-01-21T03:23:55.976Z,7.60
2018-01-21T03:26:23.965Z,8.38
2018-01-21T03:28:51.976Z,8.43
2018-01-21T03:31:19.990Z,8.40
2018-01-21T03:33:47.974Z,8.32
2018-01-21T03:36:15.956Z,7.95
2018-01-21T03:38:43.952Z,6.90
2018-01-21T03:41:11.908Z,6.55
2018-01-21T03:43:39.929Z,7.30
2018-01-21T03:46:07.919Z,6.62
2018-01-21T03:48:35.940Z,6.95
2018-01-21T03:51:03.953Z,5.22
2018-01-21T03:53:31.955Z,6.43
2018-01-21T03:55:59.931Z,5.75
2018-01-21T03:58:27.916Z,6.78
2018-01-21T04:00:55.896Z,6.18
2018-01-21T04:03:23.886Z,8.23
2018-01-21T04:05:51.901Z,7.68
2018-01-21T04:08:19.977Z,8.27
2018-01-21T04:10:48.020Z,7.57
2018-01-21T04:13:16.003Z,7.53
2018-01-21T04:15:43.967Z,6.00
2018-01-21T04:18:12.001Z,6.45
2018-01-21T04:20:40.024Z,6.82
2018-01-21T04:23:08.074Z,4.82
2018-01-21T04:25:36.114Z,4.95
2018-01-21T04:28:04.039Z,4.62
2018-01-21T04:30:31.958Z,4.40
2018-01-21T04:32:59.846Z,5.00
2018-01-21T04:35:27.747Z,4.90
2018-01-21T04:37:55.649Z,4.47
2018-01-21T04:40:23.547Z,6.28
2018-01-21T04:42:51.466Z,4.85
2018-01-21T04:45:19.387Z,4.40
2018-01-21T04:47:47.265Z,5.35
2018-01-21T04:50:15.164Z,4.80
2018-01-21T04:52:43.108Z,5.35
2018-01-21T04:55:11.023Z,4.60
2018-01-21T04:57:38.915Z,4.22
2018-01-21T05:00:06.822Z,5.32
2018-01-21T05:02:34.727Z,3.75
2018-01-21T05:05:02.623Z,5.40
2018-01-21T05:07:30.509Z,3.78
2018-01-21T05:09:58.392Z,4.37
2018-01-21T05:12:26.273Z,4.60
2018-01-21T05:14:54.161Z,5.05
2018-01-21T05:17:22.071Z,4.00
2018-01-21T05:19:50.184Z,4.10
2018-01-21T05:22:18.078Z,4.62
2018-01-21T05:24:45.997Z,4.85
2018-01-21T05:27:13.909Z,4.90
2018-01-21T05:29:41.944Z,4.05
2018-01-21T05:32:09.907Z,3.15
2018-01-21T05:34:37.781Z,3.47
2018-01-21T05:37:06.755Z,4.45
2018-01-21T05:39:34.653Z,2.95
2018-01-21T05:42:02.530Z,3.15
2018-01-21T05:44:30.435Z,3.80
2018-01-21T05:46:58.346Z,2.70
2018-01-21T05:49:27.265Z,3.28
2018-01-21T05:51:55.206Z,3.35
2018-01-21T05:54:23.207Z,3.70
2018-01-21T05:56:51.136Z,3.83
2018-01-21T05:59:19.049Z,3.33
2018-01-21T06:01:46.956Z,3.55
2018-01-21T06:04:14.869Z,3.60
2018-01-21T06:06:43.854Z,3.28
2018-01-21T06:09:11.733Z,3.47
2018-01-21T06:11:39.626Z,2.95
2018-01-21T06:14:07.519Z,3.10
2018-01-21T06:16:35.418Z,3.65
2018-01-21T06:19:03.330Z,2.53
2018-01-21T06:21:31.477Z,2.67
2018-01-21T06:23:59.419Z,2.50
2018-01-21T06:26:27.298Z,3.10
2018-01-21T06:28:55.346Z,2.85
2018-01-21T06:31:23.275Z,3.00
2018-01-21T06:33:51.165Z,3.62
2018-01-21T06:36:19.078Z,4.10
2018-01-21T06:38:47.012Z,3.67
2018-01-21T06:41:14.906Z,3.60
2018-01-21T06:43:42.813Z,3.35
2018-01-21T06:46:10.713Z,2.92
2018-01-21T06:48:38.589Z,3.10
2018-01-21T06:51:06.469Z,3.90
2018-01-21T06:53:34.376Z,4.45
2018-01-21T06:56:02.271Z,4.15
2018-01-21T06:58:30.179Z,4.12
2018-01-21T07:00:58.101Z,4.03
2018-01-21T07:03:25.973Z,3.85
2018-01-21T07:05:53.873Z,4.93
2018-01-21T07:08:21.782Z,3.97
2018-01-21T07:10:49.687Z,4.43
2018-01-21T07:13:17.591Z,4.37
2018-01-21T07:15:45.461Z,4.37
2018-01-21T07:18:13.368Z,4.85
2018-01-21T07:20:41.295Z,6.22
2018-01-21T07:23:09.186Z,5.50
2018-01-21T07:25:37.080Z,4.80
2018-01-21T07:28:04.997Z,5.37
2018-01-21T07:30:32.901Z,5.12
2018-01-21T07:33:00.799Z,5.32
2018-01-21T07:35:28.718Z,6.78
2018-01-21T07:37:56.593Z,5.05
2018-01-21T07:40:24.511Z,6.75
2018-01-21T07:42:52.416Z,4.80
2018-01-21T07:45:20.317Z,5.78
2018-01-21T07:47:48.210Z,5.00
2018-01-21T07:50:16.128Z,5.53
2018-01-21T07:52:44.006Z,5.15
2018-01-21T07:55:11.953Z,6.15
2018-01-21T07:57:40.843Z,5.28
2018-01-21T08:00:08.733Z,4.80
2018-01-21T08:02:36.609Z,4.85
2018-01-21T08:05:04.524Z,5.57
2018-01-21T08:07:32.415Z,5.45
2018-01-21T08:10:00.311Z,4.53
2018-01-21T08:12:28.231Z,4.93
2018-01-21T08:14:56.155Z,4.40
2018-01-21T08:17:24.029Z,5.72
2018-01-21T08:19:51.944Z,5.60
2018-01-21T08:22:19.826Z,4.68
2018-01-21T08:24:47.708Z,3.78
2018-01-21T08:27:15.635Z,4.85
2018-01-21T08:29:43.506Z,4.12
2018-01-21T08:32:11.407Z,4.57
2018-01-21T08:34:45.599Z,4.30
2018-01-21T08:37:19.563Z,3.75
2018-01-21T08:39:53.544Z,4.03
2018-01-21T08:42:25.233Z,3.53
2018-01-21T08:44:53.219Z,4.40
2018-01-21T08:47:21.186Z,4.00
2018-01-21T08:49:49.091Z,3.87
2018-01-21T08:52:17.016Z,4.55
2018-01-21T08:54:44.903Z,13.52
2018-01-21T08:57:12.808Z,19.35
2018-01-21T08:59:40.682Z,6.12
2018-01-21T09:02:08.590Z,5.75
2018-01-21T09:04:36.487Z,5.70
2018-01-21T09:07:04.387Z,5.10
2018-01-21T09:09:32.309Z,4.80
2018-01-21T09:12:00.219Z,4.93
2018-01-21T09:14:28.130Z,4.05
2018-01-21T09:16:56.031Z,4.97
2018-01-21T09:19:23.923Z,4.28
2018-01-21T09:21:51.861Z,4.05
2018-01-21T09:24:19.763Z,3.75
2018-01-21T09:26:47.660Z,2.95
2018-01-21T09:29:15.561Z,3.20
2018-01-21T09:31:43.468Z,3.03
2018-01-21T09:34:11.343Z,3.53
2018-01-21T09:36:39.238Z,3.08
2018-01-21T09:39:07.141Z,3.08
2018-01-21T09:41:35.051Z,3.15
2018-01-21T09:44:02.975Z,3.05
2018-01-21T09:46:30.877Z,2.55
2018-01-21T09:48:58.765Z,2.97
2018-01-21T09:51:26.657Z,2.90
2018-01-21T09:53:54.549Z,2.47
2018-01-21T09:56:22.450Z,2.62
2018-01-21T09:58:50.351Z,3.05
2018-01-21T10:01:18.225Z,1.98
2018-01-21T10:03:46.109Z,3.12
2018-01-21T10:06:14.024Z,2.12
2018-01-21T10:08:41.917Z,2.33
2018-01-21T10:11:09.825Z,2.90
2018-01-21T10:13:37.710Z,2.55
2018-01-21T10:16:05.611Z,2.45
2018-01-21T10:18:33.497Z,2.70
2018-01-21T10:21:01.397Z,2.00
2018-01-21T10:23:29.299Z,2.55
2018-01-21T10:25:57.273Z,2.33
2018-01-21T10:28:25.173Z,2.17
2018-01-21T10:30:53.069Z,2.28
2018-01-21T10:33:20.961Z,2.12
2018-01-21T10:35:48.858Z,2.35
2018-01-21T10:38:16.757Z,2.90
2018-01-21T10:40:44.653Z,2.03
2018-01-21T10:43:12.537Z,2.25
2018-01-21T10:45:40.433Z,2.20
2018-01-21T10:48:08.343Z,1.92
2018-01-21T10:50:36.249Z,1.40
2018-01-21T10:53:04.138Z,1.52
2018-01-21T10:55:32.034Z,1.70
2018-01-21T10:57:59.956Z,1.80
2018-01-21T11:00:27.993Z,2.50
2018-01-21T11:02:55.944Z,1.60
2018-01-21T11:05:23.849Z,2.53
2018-01-21T11:07:51.742Z,2.90
2018-01-21T11:10:19.635Z,1.77
2018-01-21T11:12:47.520Z,1.70
2018-01-21T11:15:15.447Z,1.62
2018-01-21T11:17:43.329Z,1.40
2018-01-21T11:20:11.238Z,1.55
2018-01-21T11:22:39.240Z,1.17
2018-01-21T11:25:08.223Z,1.12
2018-01-21T11:27:36.152Z,1.60
2018-01-21T11:30:04.052Z,1.40
2018-01-21T11:32:31.982Z,2.20
2018-01-21T11:34:59.858Z,1.65
2018-01-21T11:37:27.747Z,1.48
2018-01-21T11:39:55.645Z,1.70
2018-01-21T11:42:23.537Z,1.20
2018-01-21T11:44:51.410Z,1.75
2018-01-21T11:47:19.321Z,1.33
2018-01-21T11:49:47.219Z,1.10
2018-01-21T11:52:15.101Z,1.65
2018-01-21T11:54:42.997Z,10.48
2018-01-21T11:57:10.869Z,1.67
2018-01-21T11:59:38.767Z,0.98
2018-01-21T12:02:06.679Z,1.20
2018-01-21T12:04:34.562Z,1.70
2018-01-21T12:07:02.449Z,1.55
2018-01-21T12:09:30.349Z,1.17
2018-01-21T12:11:58.263Z,0.82
2018-01-21T12:14:26.169Z,1.30
2018-01-21T12:16:54.075Z,1.30
2018-01-21T12:19:21.985Z,1.20
2018-01-21T12:21:49.880Z,1.70
2018-01-21T12:24:17.776Z,1.08
2018-01-21T12:26:45.669Z,1.20
2018-01-21T12:29:14.414Z,1.50
2018-01-21T12:31:42.328Z,1.35
2018-01-21T12:34:10.342Z,2.15
2018-01-21T12:36:38.238Z,0.98
2018-01-21T12:39:06.121Z,1.90
2018-01-21T12:41:34.012Z,1.25
2018-01-21T12:44:01.922Z,1.23
2018-01-21T12:46:29.823Z,1.20
2018-01-21T12:48:58.685Z,1.65
2018-01-21T12:51:26.585Z,1.10
2018-01-21T12:53:54.486Z,1.00
2018-01-21T12:56:22.379Z,0.90
2018-01-21T12:58:50.282Z,1.25
2018-01-21T13:01:18.182Z,1.45
2018-01-21T13:03:46.086Z,1.40
2018-01-21T13:06:13.985Z,1.27
2018-01-21T13:08:41.940Z,0.98
2018-01-21T13:11:09.847Z,1.55
2018-01-21T13:13:37.736Z,1.42
2018-01-21T13:16:05.638Z,1.52
2018-01-21T13:18:33.527Z,1.40
2018-01-21T13:21:01.405Z,1.30
2018-01-21T13:23:29.319Z,1.60
2018-01-21T13:25:57.222Z,1.60
2018-01-21T13:28:25.114Z,1.90
2018-01-21T13:30:53.027Z,1.27
2018-01-21T13:33:20.926Z,1.25
2018-01-21T13:35:48.822Z,27.35
2018-01-21T13:38:16.717Z,1.67
2018-01-21T13:40:44.606Z,1.20
2018-01-21T13:43:12.502Z,1.45
2018-01-21T13:45:40.397Z,0.90
2018-01-21T13:48:08.309Z,0.75
2018-01-21T13:50:36.215Z,1.50
2018-01-21T13:53:04.139Z,1.50
2018-01-21T13:55:32.026Z,1.20
2018-01-21T13:57:59.948Z,1.23
2018-01-21T14:00:28.230Z,1.40
2018-01-21T14:02:56.152Z,1.17
2018-01-21T14:05:24.056Z,1.20
2018-01-21T14:07:51.975Z,2.03
2018-01-21T14:10:19.877Z,1.75
2018-01-21T14:12:47.773Z,1.90
2018-01-21T14:15:15.673Z,1.83
2018-01-21T14:17:43.575Z,1.52
2018-01-21T14:20:11.461Z,1.83
2018-01-21T14:22:39.360Z,1.45
2018-01-21T14:25:07.272Z,1.65
2018-01-21T14:27:35.171Z,1.48
2018-01-21T14:30:04.100Z,2.22
2018-01-21T14:32:32.020Z,2.03
2018-01-21T14:34:59.890Z,1.92
2018-01-21T14:37:27.804Z,2.30
2018-01-21T14:39:55.706Z,2.28
2018-01-21T14:42:23.601Z,1.90
2018-01-21T14:44:51.539Z,1.80
2018-01-21T14:47:19.443Z,1.55
2018-01-21T14:49:47.339Z,1.10
2018-01-21T14:52:15.240Z,2.47
2018-01-21T14:54:43.153Z,1.60
2018-01-21T14:57:11.057Z,1.75
2018-01-21T14:59:38.949Z,1.48
2018-01-21T15:02:06.849Z,1.20
2018-01-21T15:04:34.742Z,1.40
2018-01-21T15:07:02.679Z,2.00
2018-01-21T15:09:30.561Z,1.40
2018-01-21T15:11:58.449Z,1.70
2018-01-21T15:14:26.359Z,2.05
2018-01-21T15:16:54.246Z,1.40
2018-01-21T15:19:22.163Z,1.55
2018-01-21T15:21:51.140Z,1.90
2018-01-21T15:24:19.038Z,1.60
2018-01-21T15:26:46.921Z,1.30
2018-01-21T15:29:14.815Z,1.30
2018-01-21T15:31:42.707Z,1.42
2018-01-21T15:34:10.619Z,1.20
2018-01-21T15:36:38.531Z,1.15
2018-01-21T15:39:06.413Z,1.80
2018-01-21T15:41:34.331Z,2.05
2018-01-21T15:44:02.221Z,1.50
2018-01-21T15:46:30.124Z,2.10
2018-01-21T15:48:58.049Z,2.17
2018-01-21T15:51:25.976Z,2.47
2018-01-21T15:53:53.882Z,2.08
2018-01-21T15:56:21.770Z,1.90
2018-01-21T15:58:49.660Z,2.55
2018-01-21T16:01:17.550Z,2.30
2018-01-21T16:03:45.433Z,2.42
2018-01-21T16:06:13.319Z,2.78
2018-01-21T16:08:41.223Z,2.80
2018-01-21T16:11:10.266Z,2.55
2018-01-21T16:13:38.201Z,2.30
2018-01-21T16:16:06.129Z,2.08
2018-01-21T16:18:34.050Z,2.40
2018-01-21T16:21:01.943Z,2.33
2018-01-21T16:23:29.893Z,2.20
2018-01-21T16:25:57.778Z,2.33
2018-01-21T16:28:25.657Z,2.12
2018-01-21T16:30:53.547Z,2.15
2018-01-21T16:33:21.426Z,2.78
2018-01-21T16:35:49.326Z,3.08
2018-01-21T16:38:23.397Z,1.62
2018-01-21T16:40:51.285Z,2.45
2018-01-21T16:43:19.169Z,2.85
2018-01-21T16:45:47.076Z,3.00
2018-01-21T16:48:14.971Z,4.00
2018-01-21T16:50:42.866Z,5.57
2018-01-21T16:53:10.742Z,1.77
2018-01-21T16:55:38.639Z,1.87
2018-01-21T16:58:06.538Z,1.65
2018-01-21T17:00:34.422Z,1.60
2018-01-21T17:03:02.302Z,1.65
2018-01-21T17:05:30.259Z,1.50
2018-01-21T17:07:58.167Z,2.10
2018-01-21T17:10:26.070Z,1.48
2018-01-21T17:12:53.987Z,1.70
2018-01-21T17:15:21.887Z,2.08
2018-01-21T17:17:49.796Z,2.67
2018-01-21T17:20:17.686Z,1.95
2018-01-21T17:22:46.586Z,1.70
2018-01-21T17:25:14.503Z,1.73
2018-01-21T17:27:42.398Z,2.00
2018-01-21T17:30:10.311Z,2.60
2018-01-21T17:32:38.216Z,2.08
2018-01-21T17:35:06.103Z,2.60
2018-01-21T17:37:33.970Z,2.72
2018-01-21T17:40:01.874Z,2.35
2018-01-21T17:42:29.762Z,2.40
2018-01-21T17:44:57.680Z,3.30
2018-01-21T17:47:25.592Z,2.25
2018-01-21T17:49:53.482Z,2.70
2018-01-21T17:52:21.373Z,2.95
2018-01-21T17:54:49.285Z,3.03
2018-01-21T17:57:17.173Z,4.78
2018-01-21T17:59:45.065Z,3.75
2018-01-21T18:02:12.951Z,3.85
2018-01-21T18:04:40.863Z,3.22
2018-01-21T18:07:08.756Z,3.85
2018-01-21T18:09:36.661Z,3.65
2018-01-21T18:12:04.549Z,3.45
2018-01-21T18:14:32.447Z,3.35
2018-01-21T18:17:00.364Z,2.85
2018-01-21T18:19:28.237Z,3.17
2018-01-21T18:21:56.147Z,3.15
2018-01-21T18:24:24.070Z,2.87
2018-01-21T18:26:51.955Z,2.28
2018-01-21T18:29:19.854Z,2.35
2018-01-21T18:31:47.776Z,2.40
2018-01-21T18:34:15.665Z,2.90
2018-01-21T18:36:43.607Z,2.62
2018-01-21T18:39:11.523Z,1.90
2018-01-21T18:41:39.440Z,3.12
2018-01-21T18:44:07.321Z,3.50
2018-01-21T18:46:35.205Z,3.08
2018-01-21T18:49:03.160Z,2.40
2018-01-21T18:51:31.053Z,2.85
2018-01-21T18:53:58.960Z,2.72
2018-01-21T18:56:26.857Z,3.60
2018-01-21T18:58:54.736Z,2.50
2018-01-21T19:01:22.652Z,3.35
2018-01-21T19:03:50.529Z,3.00
2018-01-21T19:06:18.401Z,4.32
2018-01-21T19:08:46.375Z,3.40
2018-01-21T19:11:14.225Z,3.80
2018-01-21T19:13:42.151Z,4.00
2018-01-21T19:16:10.069Z,3.62
2018-01-21T19:18:37.963Z,3.50
2018-01-21T19:21:05.852Z,3.85
2018-01-21T19:23:34.883Z,3.40
2018-01-21T19:26:02.794Z,3.53
2018-01-21T19:28:30.696Z,4.40
2018-01-21T19:30:58.602Z,3.25
2018-01-21T19:33:26.514Z,3.05
2018-01-21T19:35:54.416Z,3.45
2018-01-21T19:38:28.501Z,3.15
2018-01-21T19:40:56.435Z,2.45
2018-01-21T19:43:27.248Z,2.75
2018-01-21T19:45:55.218Z,2.80
2018-01-21T19:48:24.126Z,2.22
2018-01-21T19:50:52.025Z,3.75
2018-01-21T19:53:19.905Z,3.00
2018-01-21T19:55:47.833Z,3.42
2018-01-21T19:58:15.728Z,3.92
2018-01-21T20:00:43.663Z,4.57
2018-01-21T20:03:11.562Z,6.35
2018-01-21T20:05:39.539Z,5.00
2018-01-21T20:08:07.460Z,4.00
2018-01-21T20:10:35.357Z,5.00
2018-01-21T20:13:08.297Z,5.10
2018-01-21T20:15:36.194Z,5.32
2018-01-21T20:18:04.120Z,5.72
2018-01-21T20:20:32.016Z,5.15
2018-01-21T20:22:59.905Z,5.93
2018-01-21T20:25:27.800Z,7.05
2018-01-21T20:27:55.681Z,6.20
2018-01-21T20:30:23.594Z,6.37
2018-01-21T20:32:51.488Z,5.55
2018-01-21T20:35:19.394Z,5.47
2018-01-21T20:37:47.295Z,5.82
2018-01-21T20:40:15.212Z,5.93
2018-01-21T20:42:43.120Z,5.35
2018-01-21T20:45:11.012Z,5.00
2018-01-21T20:47:38.915Z,6.22
2018-01-21T20:50:06.808Z,5.12
2018-01-21T20:52:40.743Z,4.78
2018-01-21T20:55:08.660Z,5.20
2018-01-21T20:57:36.541Z,4.20
2018-01-21T21:00:04.441Z,4.95
2018-01-21T21:02:32.354Z,5.25
2018-01-21T21:05:00.234Z,6.10
2018-01-21T21:07:28.151Z,5.80
2018-01-21T21:09:56.033Z,4.68
2018-01-21T21:12:23.944Z,4.87
2018-01-21T21:14:51.847Z,5.25
2018-01-21T21:17:19.751Z,4.97
2018-01-21T21:19:47.643Z,5.78
2018-01-21T21:22:15.584Z,5.47
2018-01-21T21:24:43.472Z,6.32
2018-01-21T21:27:11.363Z,4.62
2018-01-21T21:29:39.250Z,5.82
2018-01-21T21:32:07.271Z,4.90
2018-01-21T21:34:35.146Z,5.20
2018-01-21T21:37:03.045Z,6.07
2018-01-21T21:39:30.944Z,6.45
2018-01-21T21:41:58.825Z,5.85
2018-01-21T21:44:26.726Z,6.80
2018-01-21T21:46:54.685Z,7.55
2018-01-21T21:49:22.566Z,7.10
2018-01-21T21:51:50.446Z,6.55
2018-01-21T21:54:18.337Z,6.25
2018-01-21T21:56:46.233Z,6.78
2018-01-21T21:59:14.132Z,7.57
2018-01-21T22:01:42.033Z,6.87
2018-01-21T22:04:09.946Z,7.75
2018-01-21T22:06:37.883Z,7.78
2018-01-21T22:09:06.090Z,7.30
2018-01-21T22:11:34.177Z,7.40
2018-01-21T22:14:02.066Z,7.37
2018-01-21T22:16:29.973Z,7.00
2018-01-21T22:18:57.853Z,8.52
2018-01-21T22:21:25.744Z,7.55
2018-01-21T22:23:53.646Z,7.03
2018-01-21T22:26:21.525Z,6.07
2018-01-21T22:28:49.431Z,7.78
2018-01-21T22:31:17.327Z,8.30
2018-01-21T22:33:45.210Z,8.25
2018-01-21T22:36:13.120Z,7.57
2018-01-21T22:38:41.036Z,7.50
2018-01-21T22:41:08.934Z,7.37
2018-01-21T22:43:36.823Z,8.45
2018-01-21T22:46:04.733Z,8.20
2018-01-21T22:48:32.615Z,7.45
2018-01-21T22:51:00.511Z,7.10
2018-01-21T22:53:28.442Z,6.53
2018-01-21T22:55:56.457Z,7.60
2018-01-21T22:58:25.197Z,8.40
2018-01-21T23:00:53.109Z,7.20
2018-01-21T23:03:20.999Z,7.12
2018-01-21T23:05:48.893Z,8.18
2018-01-21T23:08:16.797Z,9.00
2018-01-21T23:10:59.676Z,9.13
2018-01-21T23:13:27.561Z,6.65
2018-01-21T23:15:55.455Z,8.52
2018-01-21T23:18:23.346Z,6.65
2018-01-21T23:20:57.453Z,6.95
2018-01-21T23:23:25.552Z,7.65
2018-01-21T23:25:53.471Z,8.10
2018-01-21T23:28:21.372Z,8.40
2018-01-21T23:30:49.258Z,9.40
2018-01-21T23:33:17.153Z,8.00
2018-01-21T23:35:45.071Z,9.05
2018-01-21T23:38:12.974Z,8.50
2018-01-21T23:40:40.873Z,7.40
2018-01-21T23:43:08.760Z,8.00
2018-01-21T23:45:36.663Z,7.53
2018-01-21T23:48:04.563Z,7.60
2018-01-21T23:50:32.470Z,7.43
2018-01-21T23:53:00.396Z,8.77
2018-01-21T23:55:28.328Z,7.95
2018-01-21T23:57:56.214Z,8.52
